Hattiesburg Bobby L Chain Municipal Airport Hattiesburg US
ICAO: KHBG
IATA: HBG
Category: Medium
Scheduled Services: No

Elevation: 151 ft
TransAlt. 18000 ft.

Airport Communications:
ASOS:135.425
HOUSTON CNTR:126.8
CTAF/UNICOM:122.8

KHBG Zoom In..

If you have problems with the map follow the link
https://www.worldairports.se/pages/airport.php?
ICAO=KHBG

Runways:

(A) RW 13 length 6094 ft width 150 ft
---- / hdg 132

(B) RW 31 length 6094 ft width 150 ft
---- / hdg 312

Location; KHBG
Day. 18 / Time. 23.53 Zulu
* Altimeter: 30.26
* Temperature: 21° c. 69.8°f.
* Wind from: 010° Speed 03 kn.
Dewpoint: 11° c.
Visibility: 10 Statute Miles.
Clouds: Clear (automated report).

KHBG 182353Z AUTO 01003KT 10SM CLR 21/11 A3026 RMK AO2 SLPNO T02110111


Wind From 010°
Speed 03 kn.

 
 
jpsmedia.com for Web Design worldairports.se 2018   terms of use